Time;durP1;ratioP1;P1;durP2;ratioP2;P2;SDS_P1;SDS_P2;PMS_P1;PMS_P2;Temp;Humidity;BMP_temperature;BMP_pressure;BME280_temperature;BME280_humidity;BME280_pressure;Samples;Min_cycle;Max_cycle;Signal;HPM_P1;HPM_P2
2023/03/30 03:02:52;;;;;;;5.50;2.53;;;13.90;82.40;;;;;;5058246;23;20493;-68
2023/03/30 03:05:20;;;;;;;4.50;2.63;;;13.80;83.80;;;;;;4977838;28;20494;-69
2023/03/30 03:07:47;;;;;;;5.53;2.10;;;13.80;84.20;;;;;;4977929;28;20513;-69
2023/03/30 03:10:14;;;;;;;4.70;2.60;;;13.80;84.30;;;;;;4977787;28;20568;-69
2023/03/30 03:12:42;;;;;;;5.47;2.77;;;13.60;84.80;;;;;;4977593;28;20560;-69
2023/03/30 03:15:10;;;;;;;6.20;2.43;;;13.60;85.40;;;;;;4978184;28;20549;-68
2023/03/30 03:17:37;;;;;;;4.03;2.00;;;13.70;85.70;;;;;;4977279;28;20844;-69
2023/03/30 03:20:09;;;;;;;4.10;2.10;;;13.70;85.40;;;;;;4977573;28;20450;-68
2023/03/30 03:22:36;;;;;;;4.43;2.47;;;13.60;85.50;;;;;;4977098;28;20951;-69
2023/03/30 03:25:03;;;;;;;8.33;2.63;;;13.50;85.80;;;;;;4977554;28;20450;-68
2023/03/30 03:27:30;;;;;;;5.40;2.33;;;13.50;85.90;;;;;;4977952;28;20461;-69
2023/03/30 03:29:57;;;;;;;7.83;2.90;;;13.40;86.30;;;;;;4977796;28;20449;-69
2023/03/30 03:32:24;;;;;;;5.20;2.27;;;13.40;86.70;;;;;;4977598;28;20474;-69
2023/03/30 03:34:51;;;;;;;6.87;2.50;;;13.40;86.70;;;;;;4977406;28;20450;-68
2023/03/30 03:37:19;;;;;;;6.10;2.50;;;13.40;86.80;;;;;;4977347;28;20454;-69
2023/03/30 03:39:45;;;;;;;4.30;2.80;;;13.40;86.90;;;;;;4977278;28;20454;-69
2023/03/30 03:42:12;;;;;;;7.03;2.70;;;13.40;86.80;;;;;;4976284;28;20497;-69
2023/03/30 03:44:39;;;;;;;4.27;2.53;;;13.40;86.90;;;;;;4977152;28;20458;-69
2023/03/30 03:47:06;;;;;;;9.17;3.10;;;13.40;86.90;;;;;;4977290;28;20455;-69
2023/03/30 03:49:32;;;;;;;5.27;2.53;;;13.40;86.80;;;;;;4977261;28;20477;-69
2023/03/30 03:51:59;;;;;;;6.27;3.93;;;13.50;86.50;;;;;;4977522;28;20493;-68
2023/03/30 03:54:27;;;;;;;6.23;2.83;;;13.50;86.30;;;;;;4978181;28;20460;-69
2023/03/30 03:56:54;;;;;;;5.83;2.80;;;13.40;86.70;;;;;;4978043;28;20454;-69
2023/03/30 03:59:21;;;;;;;4.00;2.60;;;13.50;86.90;;;;;;4977485;28;20454;-70
2023/03/30 04:01:47;;;;;;;6.03;2.80;;;13.70;86.40;;;;;;4977094;28;20914;-69
2023/03/30 04:04:14;;;;;;;5.17;2.70;;;13.70;86.00;;;;;;4977095;28;20446;-69
2023/03/30 04:06:41;;;;;;;4.53;2.37;;;13.60;86.20;;;;;;4976524;28;20948;-70
2023/03/30 04:09:08;;;;;;;7.10;2.67;;;13.60;86.20;;;;;;4976742;28;20446;-69
2023/03/30 04:11:36;;;;;;;5.77;2.60;;;13.50;86.40;;;;;;4976595;28;20486;-69
2023/03/30 04:14:02;;;;;;;6.10;2.53;;;13.50;86.80;;;;;;4976585;28;20469;-69
2023/03/30 04:16:29;;;;;;;5.67;2.87;;;13.70;86.10;;;;;;4976585;28;20446;-70
2023/03/30 04:18:57;;;;;;;5.80;2.70;;;13.90;85.40;;;;;;4976260;28;20947;-69
2023/03/30 04:21:24;;;;;;;5.47;2.67;;;14.00;84.90;;;;;;4976511;28;20549;-71
2023/03/30 04:23:51;;;;;;;4.73;2.37;;;14.10;84.70;;;;;;4977126;28;20501;-69
2023/03/30 04:26:17;;;;;;;6.03;3.03;;;14.10;84.70;;;;;;4976308;28;20952;-70
2023/03/30 04:28:45;;;;;;;6.13;3.10;;;14.20;84.10;;;;;;4976042;28;20968;-71
2023/03/30 04:31:12;;;;;;;3.83;2.40;;;14.20;83.70;;;;;;4975821;28;20963;-69
2023/03/30 04:33:44;;;;;;;4.43;2.60;;;14.10;84.30;;;;;;4976292;28;20450;-71
2023/03/30 04:36:12;;;;;;;4.30;2.50;;;14.10;84.40;;;;;;4975937;28;20474;-70
2023/03/30 04:38:41;;;;;;;5.67;2.80;;;14.00;84.70;;;;;;4975904;28;20972;-70
2023/03/30 04:41:09;;;;;;;6.70;2.53;;;14.00;84.90;;;;;;4976100;28;20464;-70
2023/03/30 04:43:36;;;;;;;3.60;2.20;;;14.10;84.60;;;;;;4976086;28;20442;-70
2023/03/30 04:46:04;;;;;;;5.57;2.57;;;14.10;84.80;;;;;;4976069;28;20454;-70
2023/03/30 04:48:31;;;;;;;5.23;2.50;;;14.10;84.70;;;;;;4976007;28;20454;-70
2023/03/30 04:50:57;;;;;;;4.30;2.27;;;14.10;84.70;;;;;;4975547;28;20837;-70
2023/03/30 04:53:24;;;;;;;7.00;3.90;;;14.20;84.50;;;;;;4975810;28;20501;-71
2023/03/30 04:55:51;;;;;;;3.97;2.20;;;14.30;84.10;;;;;;4975878;28;20813;-70
2023/03/30 04:58:18;;;;;;;5.93;2.80;;;14.40;83.70;;;;;;4975826;28;20517;-70
2023/03/30 05:00:44;;;;;;;7.40;2.87;;;14.30;83.50;;;;;;4975621;28;20893;-70
2023/03/30 05:03:12;;;;;;;9.73;3.93;;;14.20;83.80;;;;;;4975832;28;20493;-70
2023/03/30 05:05:39;;;;;;;6.40;2.93;;;14.30;83.50;;;;;;4975721;28;20501;-70
2023/03/30 05:08:06;;;;;;;6.43;2.77;;;14.30;83.40;;;;;;4975632;28;20461;-71
2023/03/30 05:10:33;;;;;;;7.70;2.70;;;14.30;83.40;;;;;;4975471;28;20634;-70
2023/03/30 05:12:59;;;;;;;4.53;2.50;;;14.30;83.40;;;;;;4975630;28;20496;-70
2023/03/30 05:15:26;;;;;;;8.10;4.70;;;14.40;83.30;;;;;;4975504;28;20454;-70
2023/03/30 05:17:53;;;;;;;4.20;2.13;;;14.50;82.70;;;;;;4975550;28;20454;-70
2023/03/30 05:20:21;;;;;;;5.27;3.50;;;14.50;82.60;;;;;;4975383;28;20486;-70
2023/03/30 05:22:48;;;;;;;6.43;3.20;;;14.60;82.30;;;;;;4975353;28;20497;-70
2023/03/30 05:25:15;;;;;;;4.67;2.80;;;14.80;82.00;;;;;;4975291;28;20904;-70
2023/03/30 05:27:42;;;;;;;7.30;2.40;;;14.80;82.30;;;;;;4975256;28;20450;-69
2023/03/30 05:30:09;;;;;;;5.57;2.47;;;14.80;82.50;;;;;;4975234;28;20524;-70
2023/03/30 05:32:36;;;;;;;6.60;3.00;;;14.80;82.40;;;;;;4975044;28;20490;-70
2023/03/30 05:35:03;;;;;;;6.40;2.80;;;14.80;82.20;;;;;;4974824;28;20549;-71
2023/03/30 05:37:31;;;;;;;5.60;2.50;;;14.80;82.40;;;;;;4974819;28;20450;-69
2023/03/30 05:39:57;;;;;;;5.13;2.60;;;14.70;82.10;;;;;;4975097;28;20517;-69
2023/03/30 05:42:24;;;;;;;7.00;2.70;;;14.70;82.60;;;;;;4975003;28;20466;-70
2023/03/30 05:44:51;;;;;;;5.80;3.10;;;14.80;82.10;;;;;;4974688;28;20457;-69
2023/03/30 05:47:18;;;;;;;5.70;3.27;;;14.80;82.10;;;;;;4975817;28;20868;-70
2023/03/30 05:49:44;;;;;;;4.60;2.63;;;14.90;81.60;;;;;;4974908;28;20454;-70
2023/03/30 05:52:12;;;;;;;6.60;2.60;;;14.80;81.80;;;;;;4974953;28;20528;-70
2023/03/30 05:54:40;;;;;;;5.70;3.20;;;14.70;82.20;;;;;;4974854;28;20462;-70
2023/03/30 05:57:06;;;;;;;4.90;3.13;;;14.60;82.40;;;;;;4974840;28;20450;-69
2023/03/30 05:59:33;;;;;;;5.93;2.67;;;14.50;82.80;;;;;;4975025;28;20446;-70
2023/03/30 06:02:00;;;;;;;6.53;3.37;;;14.70;82.50;;;;;;4974451;28;20481;-69
2023/03/30 06:04:27;;;;;;;8.40;3.17;;;14.70;82.20;;;;;;4974529;28;20536;-70
2023/03/30 06:06:53;;;;;;;5.30;2.60;;;14.60;82.60;;;;;;4974838;28;20454;-70
2023/03/30 06:09:20;;;;;;;5.43;3.20;;;14.70;82.40;;;;;;4974527;28;20454;-70
2023/03/30 06:11:48;;;;;;;5.70;2.87;;;14.70;82.30;;;;;;4974472;28;20486;-70
2023/03/30 06:14:16;;;;;;;3.93;2.30;;;14.70;82.50;;;;;;4974648;28;20450;-70
2023/03/30 06:16:42;;;;;;;5.00;3.00;;;14.80;82.40;;;;;;4974785;28;20450;-69
2023/03/30 06:19:09;;;;;;;4.87;2.20;;;14.80;82.10;;;;;;4974411;28;20491;-69
2023/03/30 06:21:36;;;;;;;8.40;3.43;;;14.90;82.20;;;;;;4974429;28;20521;-69
2023/03/30 06:24:02;;;;;;;7.60;3.13;;;14.90;82.10;;;;;;4974383;28;20489;-70
2023/03/30 06:26:29;;;;;;;4.30;2.50;;;15.00;82.00;;;;;;4974451;28;20505;-70
2023/03/30 06:28:57;;;;;;;7.17;3.20;;;14.80;81.90;;;;;;4974399;28;20451;-70
2023/03/30 06:31:24;;;;;;;4.27;2.20;;;14.80;81.60;;;;;;4974217;28;20535;-70
2023/03/30 06:33:51;;;;;;;6.53;2.60;;;14.80;82.20;;;;;;4974220;28;20453;-69
2023/03/30 06:36:18;;;;;;;4.57;2.53;;;14.90;82.20;;;;;;4974289;28;20454;-70
2023/03/30 06:38:44;;;;;;;5.60;2.80;;;14.90;81.40;;;;;;4973975;28;20450;-70
2023/03/30 06:41:11;;;;;;;6.47;2.70;;;14.80;81.50;;;;;;4974298;28;20470;-70
2023/03/30 06:43:39;;;;;;;6.47;2.80;;;14.90;81.40;;;;;;4974375;28;20464;-70
2023/03/30 06:46:08;;;;;;;5.60;2.77;;;14.90;81.30;;;;;;4974606;28;20449;-70
2023/03/30 06:48:35;;;;;;;5.57;3.00;;;14.90;81.00;;;;;;4974421;28;20508;-70
2023/03/30 06:51:02;;;;;;;4.77;2.70;;;14.90;80.10;;;;;;4973766;28;20792;-70
2023/03/30 06:53:29;;;;;;;5.90;2.27;;;14.90;79.90;;;;;;4974407;28;20454;-71
2023/03/30 06:55:57;;;;;;;4.23;2.73;;;15.00;79.90;;;;;;4973869;28;20455;-70
2023/03/30 06:58:26;;;;;;;6.13;2.90;;;15.20;79.60;;;;;;4974377;28;20446;-70
2023/03/30 07:00:53;;;;;;;3.90;2.20;;;15.60;78.20;;;;;;4974083;28;20852;-71
2023/03/30 07:03:21;;;;;;;4.10;2.67;;;15.70;77.30;;;;;;4973824;28;20821;-71
2023/03/30 07:05:47;;;;;;;3.97;2.63;;;15.70;77.60;;;;;;4974259;28;20446;-70
2023/03/30 07:08:14;;;;;;;7.20;3.47;;;15.60;77.80;;;;;;4974045;28;20438;-71
2023/03/30 07:10:42;;;;;;;6.70;3.20;;;15.30;78.50;;;;;;4974191;28;20470;-71
2023/03/30 07:13:09;;;;;;;5.80;2.50;;;15.30;79.10;;;;;;4974136;28;20573;-70
2023/03/30 07:15:35;;;;;;;5.80;2.60;;;15.20;79.30;;;;;;4974161;28;20458;-70
2023/03/30 07:18:03;;;;;;;5.37;2.93;;;15.10;79.80;;;;;;4977336;28;20449;-70
2023/03/30 07:20:31;;;;;;;5.00;2.80;;;15.10;80.70;;;;;;4977758;28;20458;-70
2023/03/30 07:22:58;;;;;;;5.97;2.93;;;15.20;81.40;;;;;;4977626;28;20481;-71
2023/03/30 07:25:25;;;;;;;6.00;3.00;;;15.10;82.10;;;;;;4977714;28;20450;-71
2023/03/30 07:27:52;;;;;;;4.73;2.60;;;15.10;82.60;;;;;;4977535;28;20454;-70
2023/03/30 07:30:21;;;;;;;6.23;2.90;;;15.20;83.00;;;;;;4977575;28;20457;-70
2023/03/30 07:32:48;;;;;;;5.47;3.17;;;15.10;83.40;;;;;;4977252;28;20482;-70
2023/03/30 07:35:15;;;;;;;8.77;3.10;;;15.20;83.50;;;;;;4977356;28;20453;-70
2023/03/30 07:37:43;;;;;;;4.47;3.20;;;15.30;83.40;;;;;;4977322;28;20517;-70
2023/03/30 07:40:11;;;;;;;3.80;2.70;;;15.30;83.30;;;;;;4977525;28;20456;-70
2023/03/30 07:42:38;;;;;;;4.97;2.93;;;15.20;83.50;;;;;;4977149;28;20512;-70
2023/03/30 07:45:06;;;;;;;5.77;3.00;;;15.20;83.60;;;;;;4977142;28;20513;-70
2023/03/30 07:47:33;;;;;;;6.20;3.03;;;15.10;83.80;;;;;;4977164;28;20816;-70
2023/03/30 07:49:59;;;;;;;5.33;2.80;;;15.00;84.10;;;;;;4977018;28;20442;-70
2023/03/30 07:52:26;;;;;;;5.37;2.97;;;15.00;84.70;;;;;;4976759;28;20571;-70
2023/03/30 07:54:55;;;;;;;7.30;4.03;;;15.00;84.70;;;;;;4976609;28;20892;-70
2023/03/30 07:57:21;;;;;;;5.40;3.10;;;15.00;84.90;;;;;;4976965;28;20501;-70
2023/03/30 07:59:48;;;;;;;5.47;2.80;;;15.00;85.20;;;;;;4976846;28;20481;-70
2023/03/30 08:02:16;;;;;;;4.07;3.13;;;15.10;85.20;;;;;;4976562;28;20486;-70
2023/03/30 08:04:43;;;;;;;7.43;3.57;;;15.20;85.10;;;;;;4976500;28;20867;-70
2023/03/30 08:07:11;;;;;;;4.30;2.20;;;15.30;84.90;;;;;;4976597;28;21027;-70
2023/03/30 08:09:37;;;;;;;5.00;2.33;;;15.40;84.70;;;;;;4976669;28;20461;-70
2023/03/30 08:12:06;;;;;;;4.80;2.63;;;15.40;84.40;;;;;;4976523;28;20905;-71
2023/03/30 08:14:33;;;;;;;4.83;2.13;;;15.40;84.30;;;;;;4977045;28;20481;-73
2023/03/30 08:17:00;;;;;;;4.27;2.40;;;15.40;84.40;;;;;;4977541;28;20454;-72
2023/03/30 08:19:27;;;;;;;4.40;2.40;;;15.40;84.20;;;;;;4976855;28;20477;-73
2023/03/30 08:21:55;;;;;;;3.20;2.10;;;15.50;84.30;;;;;;4976813;28;20474;-72
2023/03/30 08:24:21;;;;;;;5.40;3.13;;;15.50;84.40;;;;;;4976644;28;20485;-72
2023/03/30 08:26:48;;;;;;;6.97;2.77;;;15.40;84.20;;;;;;4978232;28;20469;-72
2023/03/30 08:29:17;;;;;;;5.03;2.30;;;15.20;85.00;;;;;;4976256;28;20457;-73
2023/03/30 08:31:44;;;;;;;4.10;2.43;;;15.00;84.90;;;;;;4977144;28;20472;-72
2023/03/30 08:34:11;;;;;;;5.23;2.43;;;15.00;85.60;;;;;;4976989;28;20541;-73
2023/03/30 08:36:37;;;;;;;4.40;2.33;;;14.90;85.40;;;;;;4976341;28;20454;-72
2023/03/30 08:39:04;;;;;;;5.50;2.13;;;14.90;85.90;;;;;;4976606;28;20450;-73
2023/03/30 08:41:59;;;;;;;3.23;1.87;;;15.10;85.90;;;;;;4976353;28;20470;-73
2023/03/30 08:44:33;;;;;;;4.23;1.97;;;15.10;85.50;;;;;;4976803;28;20439;-73
2023/03/30 08:47:02;;;;;;;5.10;2.27;;;15.10;85.40;;;;;;4976840;28;20437;-73
2023/03/30 08:49:30;;;;;;;4.27;1.70;;;15.20;85.30;;;;;;4976995;28;20461;-70
2023/03/30 08:51:58;;;;;;;3.83;2.40;;;15.10;84.80;;;;;;4976055;28;20482;-71
2023/03/30 08:54:27;;;;;;;3.50;1.97;;;15.00;85.50;;;;;;4975884;28;20820;-71
2023/03/30 08:57:02;;;;;;;4.00;2.50;;;14.80;86.80;;;;;;4976209;28;20454;-71
2023/03/30 08:59:40;;;;;;;3.77;2.47;;;14.60;86.90;;;;;;4976095;28;20497;-70
2023/03/30 09:02:15;;;;;;;4.33;1.93;;;14.40;88.00;;;;;;4975655;28;20868;-70
2023/03/30 09:04:55;;;;;;;3.57;1.93;;;14.10;88.60;;;;;;4975897;28;20439;-71
2023/03/30 09:07:24;;;;;;;3.83;2.17;;;13.90;88.60;;;;;;4975436;28;20955;-71
2023/03/30 09:09:52;;;;;;;3.57;1.50;;;13.90;88.60;;;;;;4975584;28;20477;-70
2023/03/30 09:12:27;;;;;;;3.23;1.60;;;13.60;86.90;;;;;;4975399;28;20486;-70
2023/03/30 09:15:00;;;;;;;3.70;1.60;;;13.50;87.40;;;;;;4976027;28;20528;-70
2023/03/30 09:17:32;;;;;;;3.57;1.80;;;13.40;88.90;;;;;;4975576;28;20439;-70
2023/03/30 09:20:05;;;;;;;3.70;1.60;;;13.60;88.20;;;;;;4975462;28;20782;-70
2023/03/30 09:22:38;;;;;;;3.90;1.43;;;13.30;87.90;;;;;;4975364;28;20553;-70
2023/03/30 09:25:13;;;;;;;3.47;1.93;;;13.20;88.50;;;;;;4975264;28;20431;-69
2023/03/30 09:27:45;;;;;;;2.30;1.10;;;13.20;88.10;;;;;;4975351;28;20496;-70
2023/03/30 09:30:18;;;;;;;3.50;1.20;;;13.20;88.40;;;;;;4975286;28;20466;-70
2023/03/30 09:32:57;;;;;;;2.70;1.43;;;13.10;87.90;;;;;;4975353;28;20474;-69
2023/03/30 09:35:28;;;;;;;2.20;1.20;;;13.40;88.90;;;;;;4975214;28;20473;-69
2023/03/30 09:37:54;;;;;;;2.63;1.30;;;13.40;87.50;;;;;;4974902;28;20859;-70
2023/03/30 09:40:34;;;;;;;2.67;1.23;;;13.30;87.80;;;;;;4974446;28;20486;-71
2023/03/30 09:43:11;;;;;;;3.60;1.97;;;13.30;87.90;;;;;;4975093;28;20815;-70
2023/03/30 09:45:40;;;;;;;3.13;1.33;;;13.50;88.10;;;;;;4975039;28;20848;-70
2023/03/30 09:48:08;;;;;;;2.93;1.37;;;13.40;88.20;;;;;;4974959;28;20484;-70
2023/03/30 09:50:39;;;;;;;2.30;1.33;;;13.40;87.70;;;;;;4974817;28;20446;-70
2023/03/30 09:53:09;;;;;;;2.30;1.30;;;13.50;88.50;;;;;;4974765;28;20473;-71
2023/03/30 09:55:37;;;;;;;4.00;1.97;;;13.80;89.20;;;;;;4974916;28;20524;-70
2023/03/30 09:58:17;;;;;;;3.40;1.63;;;14.00;87.30;;;;;;4974734;28;20446;-70
2023/03/30 10:00:46;;;;;;;2.23;1.10;;;14.20;85.90;;;;;;4974536;28;21014;-70
2023/03/30 10:03:20;;;;;;;2.40;1.40;;;14.20;85.40;;;;;;4974851;28;20434;-71
2023/03/30 10:06:06;;;;;;;2.40;1.30;;;14.30;84.60;;;;;;4974936;28;20442;-71
2023/03/30 10:08:35;;;;;;;3.73;1.40;;;14.30;83.90;;;;;;4975306;28;20501;-70
2023/03/30 10:11:05;;;;;;;2.80;1.40;;;14.40;85.40;;;;;;4974713;28;20478;-70
2023/03/30 10:13:35;;;;;;;3.93;1.57;;;14.60;85.40;;;;;;4974773;28;20565;-70
2023/03/30 10:16:07;;;;;;;3.47;1.70;;;14.80;84.10;;;;;;4974462;28;20435;-69
2023/03/30 10:18:40;;;;;;;4.53;1.50;;;14.90;84.60;;;;;;4974919;28;20439;-71
2023/03/30 10:21:15;;;;;;;3.13;1.57;;;15.10;83.50;;;;;;4974608;28;20520;-70
2023/03/30 10:23:44;;;;;;;2.63;1.40;;;15.00;82.90;;;;;;4974308;28;20909;-71
2023/03/30 10:26:14;;;;;;;2.10;1.10;;;15.00;83.50;;;;;;4974561;28;20446;-71
2023/03/30 10:28:51;;;;;;;2.30;1.40;;;15.00;83.90;;;;;;4974536;28;20458;-71
2023/03/30 10:31:20;;;;;;;3.30;1.60;;;15.20;84.80;;;;;;4974518;28;20469;-71
2023/03/30 10:33:48;;;;;;;3.50;1.90;;;15.50;84.50;;;;;;4974527;28;20922;-72
2023/03/30 10:36:16;;;;;;;3.73;2.30;;;15.70;82.80;;;;;;4974538;28;20454;-71
2023/03/30 10:38:43;;;;;;;2.70;1.60;;;15.60;81.40;;;;;;4974550;28;20482;-71
2023/03/30 10:41:13;;;;;;;3.23;1.60;;;15.40;82.60;;;;;;4974308;28;20469;-72
2023/03/30 10:43:41;;;;;;;3.07;1.60;;;15.30;83.30;;;;;;4974445;28;20517;-71
2023/03/30 10:46:13;;;;;;;3.87;2.00;;;15.30;83.30;;;;;;4974258;28;20473;-72
2023/03/30 10:48:54;;;;;;;3.63;2.10;;;15.30;83.50;;;;;;4975167;28;20481;-71
2023/03/30 10:51:31;;;;;;;3.67;2.17;;;15.20;82.80;;;;;;4975022;28;20485;-71
2023/03/30 10:54:06;;;;;;;5.03;2.43;;;15.10;84.10;;;;;;4978073;28;20838;-71
2023/03/30 10:56:37;;;;;;;3.70;1.80;;;14.90;84.50;;;;;;4977844;28;20434;-71
2023/03/30 10:59:30;;;;;;;3.30;1.97;;;14.80;84.80;;;;;;4977750;28;20907;-71
2023/03/30 11:02:20;;;;;;;3.80;2.20;;;14.70;85.30;;;;;;4977890;28;20477;-72
2023/03/30 11:04:52;;;;;;;3.73;2.00;;;14.50;86.10;;;;;;4978197;28;20443;-71
2023/03/30 11:07:29;;;;;;;3.30;1.73;;;14.40;86.90;;;;;;4978290;28;20450;-72
2023/03/30 11:10:02;;;;;;;3.10;1.80;;;14.40;87.50;;;;;;4977635;28;20529;-71
2023/03/30 11:12:35;;;;;;;3.50;2.27;;;14.30;88.30;;;;;;4977828;28;20473;-70
2023/03/30 11:15:06;;;;;;;4.23;1.77;;;14.10;88.90;;;;;;4978445;28;20485;-71
2023/03/30 11:17:38;;;;;;;2.80;1.80;;;13.90;89.50;;;;;;4977935;28;20434;-72
2023/03/30 11:20:19;;;;;;;3.70;2.20;;;13.90;89.80;;;;;;4977972;28;20442;-72
2023/03/30 11:22:51;;;;;;;4.10;2.07;;;13.80;91.00;;;;;;4977606;28;20815;-71
2023/03/30 11:25:21;;;;;;;3.33;2.00;;;13.60;91.20;;;;;;4977837;28;20437;-70
2023/03/30 11:27:54;;;;;;;3.60;1.83;;;13.70;91.70;;;;;;4977709;28;20454;-71
2023/03/30 11:30:26;;;;;;;3.70;2.20;;;13.80;91.50;;;;;;4977658;28;20430;-70
2023/03/30 11:32:55;;;;;;;5.30;2.57;;;13.90;91.60;;;;;;4977890;28;20477;-71
2023/03/30 11:35:30;;;;;;;4.07;2.37;;;13.90;90.90;;;;;;4977667;28;20454;-70
2023/03/30 11:38:02;;;;;;;3.83;1.87;;;14.00;91.10;;;;;;4977350;28;20493;-70
2023/03/30 11:40:38;;;;;;;5.30;2.27;;;14.20;91.20;;;;;;4977160;28;20922;-71
2023/03/30 11:43:05;;;;;;;4.43;1.97;;;14.50;90.80;;;;;;4977405;28;20431;-71
2023/03/30 11:45:52;;;;;;;4.70;2.20;;;14.60;88.20;;;;;;4977084;28;20932;-71
2023/03/30 11:48:52;;;;;;;3.77;2.07;;;14.50;87.90;;;;;;4977355;28;20509;-70
2023/03/30 11:51:37;;;;;;;4.43;2.10;;;14.30;89.10;;;;;;4977514;28;20521;-71
2023/03/30 11:54:23;;;;;;;3.30;1.97;;;14.40;90.00;;;;;;4977106;28;20479;-71
2023/03/30 11:56:53;;;;;;;6.00;2.93;;;14.40;88.60;;;;;;4977196;28;20439;-70
2023/03/30 11:59:28;;;;;;;3.60;2.40;;;14.40;88.70;;;;;;4977105;28;20509;-70
2023/03/30 12:02:11;;;;;;;3.93;2.30;;;14.50;89.10;;;;;;4976692;28;20489;-70
2023/03/30 12:04:45;;;;;;;4.73;3.23;;;14.40;88.60;;;;;;4975873;28;20919;-70
2023/03/30 12:07:25;;;;;;;5.73;2.40;;;14.60;89.00;;;;;;4976855;28;20441;-70
2023/03/30 12:09:55;;;;;;;3.30;2.03;;;14.80;87.90;;;;;;4977053;28;20430;-71
2023/03/30 12:12:31;;;;;;;3.83;2.40;;;15.00;86.90;;;;;;4976865;28;20564;-70
2023/03/30 12:15:04;;;;;;;3.67;1.90;;;15.00;86.00;;;;;;4976776;28;20480;-71
2023/03/30 12:17:40;;;;;;;3.33;2.30;;;14.90;85.50;;;;;;4976569;28;20908;-70
2023/03/30 12:20:19;;;;;;;5.60;3.00;;;14.80;86.60;;;;;;4976364;28;20448;-71
2023/03/30 12:22:55;;;;;;;4.70;2.60;;;14.60;85.60;;;;;;4976696;28;20460;-71
2023/03/30 12:25:28;;;;;;;4.20;2.30;;;14.40;85.60;;;;;;4976845;28;20437;-71
2023/03/30 12:28:03;;;;;;;4.67;2.50;;;14.50;87.40;;;;;;4981338;28;20441;-70
2023/03/30 12:30:42;;;;;;;3.00;1.93;;;14.80;86.70;;;;;;4980645;28;20903;-70
2023/03/30 12:33:12;;;;;;;3.77;1.90;;;15.20;86.40;;;;;;4976835;28;20474;-70
2023/03/30 12:35:55;;;;;;;4.70;2.17;;;15.50;83.40;;;;;;4976731;28;20462;-70
2023/03/30 12:38:25;;;;;;;4.43;2.13;;;15.50;81.80;;;;;;4980246;28;20948;-70
2023/03/30 12:41:13;;;;;;;4.03;2.03;;;15.70;80.40;;;;;;4980107;28;20887;-70
2023/03/30 12:43:57;;;;;;;4.87;2.40;;;15.50;80.50;;;;;;4976269;28;20440;-70
2023/03/30 12:46:30;;;;;;;4.13;2.93;;;15.50;81.40;;;;;;4976439;28;20426;-70
2023/03/30 12:49:03;;;;;;;3.40;2.10;;;15.60;78.80;;;;;;4976808;28;20434;-70
2023/03/30 12:51:43;;;;;;;3.27;1.70;;;15.90;78.70;;;;;;4976201;28;20466;-70
2023/03/30 12:54:26;;;;;;;4.27;2.20;;;16.30;78.30;;;;;;4976138;28;20506;-71
2023/03/30 12:57:05;;;;;;;3.17;1.70;;;16.60;78.70;;;;;;4975862;28;20441;-72
2023/03/30 12:59:55;;;;;;;3.13;2.20;;;16.90;76.30;;;;;;4976095;28;20454;-71
2023/03/30 13:02:42;;;;;;;3.03;1.80;;;17.00;73.70;;;;;;4975399;28;20481;-71
2023/03/30 13:05:18;;;;;;;3.40;2.00;;;16.60;74.00;;;;;;4975457;28;20954;-70
2023/03/30 13:07:45;;;;;;;3.17;2.03;;;16.70;74.60;;;;;;4975809;28;20438;-70
2023/03/30 13:13:55;;;;;;;3.47;1.77;;;16.60;73.10;;;;;;4935238;29;20483;-71
2023/03/30 13:17:00;;;;;;;6.40;2.30;;;16.80;74.90;;;;;;4934876;29;20579;-71
2023/03/30 13:19:40;;;;;;;6.77;1.70;;;17.30;70.30;;;;;;4975080;28;20824;-71
2023/03/30 13:22:23;;;;;;;3.33;1.97;;;17.20;71.10;;;;;;4975448;28;20470;-73
2023/03/30 13:24:54;;;;;;;3.90;2.50;;;17.00;72.10;;;;;;4975503;28;20846;-72
2023/03/30 13:27:25;;;;;;;2.70;2.10;;;16.90;72.00;;;;;;4975428;28;20838;-72
2023/03/30 13:29:56;;;;;;;2.90;1.90;;;16.70;72.60;;;;;;4975904;28;20438;-71
2023/03/30 13:32:35;;;;;;;3.33;1.67;;;16.70;72.20;;;;;;4975632;28;20474;-71
2023/03/30 13:35:13;;;;;;;3.70;1.70;;;17.00;72.90;;;;;;4975805;28;20466;-71
2023/03/30 13:38:06;;;;;;;5.53;2.30;;;17.30;70.10;;;;;;4975186;28;20438;-72
2023/03/30 13:40:42;;;;;;;3.83;1.67;;;17.40;69.90;;;;;;4975152;28;20434;-72
2023/03/30 13:43:15;;;;;;;4.03;1.73;;;17.60;69.70;;;;;;4975186;28;20430;-72
2023/03/30 13:45:49;;;;;;;3.83;2.07;;;17.20;69.60;;;;;;4975084;28;20489;-72
2023/03/30 13:48:30;;;;;;;4.77;1.97;;;17.20;71.10;;;;;;4975010;28;20438;-71
2023/03/30 13:51:00;;;;;;;3.27;1.77;;;17.20;69.90;;;;;;4975274;28;20886;-71
2023/03/30 13:53:31;;;;;;;2.80;1.30;;;17.50;70.80;;;;;;4974505;28;20951;-71
2023/03/30 13:55:58;;;;;;;4.13;1.87;;;17.60;68.30;;;;;;4975112;28;20473;-72
2023/03/30 13:58:30;;;;;;;3.00;2.10;;;17.60;70.00;;;;;;4974859;28;20473;-72
2023/03/30 14:01:01;;;;;;;4.50;1.87;;;17.90;69.10;;;;;;4975139;28;20486;-71
2023/03/30 14:03:30;;;;;;;2.70;1.33;;;18.00;66.00;;;;;;4975068;28;20439;-70
2023/03/30 14:06:03;;;;;;;4.73;1.87;;;17.80;66.20;;;;;;4974922;28;20834;-71
2023/03/30 14:08:34;;;;;;;4.40;1.93;;;17.30;67.50;;;;;;4974809;28;20505;-72
2023/03/30 14:11:03;;;;;;;3.63;2.00;;;17.30;66.60;;;;;;4974814;28;20469;-74
2023/03/30 14:13:30;;;;;;;2.47;1.30;;;17.20;67.40;;;;;;4974554;28;20451;-72
2023/03/30 14:15:58;;;;;;;2.90;1.30;;;17.30;67.60;;;;;;4974797;28;20517;-72
2023/03/30 14:18:26;;;;;;;2.50;1.50;;;17.50;66.10;;;;;;4974444;28;20857;-72
2023/03/30 14:20:56;;;;;;;3.00;1.67;;;17.70;66.20;;;;;;4974482;28;20477;-71
2023/03/30 14:23:31;;;;;;;2.93;1.53;;;17.70;64.80;;;;;;4974553;28;20477;-71
2023/03/30 14:25:59;;;;;;;2.50;1.20;;;17.50;65.30;;;;;;4973942;28;20442;-71
2023/03/30 14:28:28;;;;;;;2.87;1.60;;;17.40;66.00;;;;;;4974520;28;20818;-72
2023/03/30 14:30:57;;;;;;;2.40;1.30;;;17.40;67.70;;;;;;4974334;28;20481;-71
2023/03/30 14:33:26;;;;;;;3.33;1.40;;;17.30;65.10;;;;;;4974172;28;20998;-72
2023/03/30 14:35:55;;;;;;;3.90;1.70;;;17.20;66.00;;;;;;4974305;28;20450;-71
2023/03/30 14:38:25;;;;;;;4.97;1.60;;;17.20;65.50;;;;;;4974457;28;20548;-71
2023/03/30 14:40:54;;;;;;;2.70;1.20;;;17.10;65.30;;;;;;4974251;28;20470;-71
2023/03/30 14:43:24;;;;;;;3.50;1.67;;;17.10;65.20;;;;;;4974392;28;20454;-71
2023/03/30 14:45:52;;;;;;;4.10;1.43;;;16.90;65.40;;;;;;4974258;28;20438;-71
2023/03/30 14:48:28;;;;;;;2.93;1.60;;;17.00;65.30;;;;;;4974003;28;20856;-72
2023/03/30 14:50:55;;;;;;;2.80;1.80;;;17.10;65.10;;;;;;4973858;28;20882;-71
2023/03/30 14:53:25;;;;;;;3.90;1.70;;;17.10;66.30;;;;;;4974013;28;20867;-71
2023/03/30 14:55:55;;;;;;;3.00;1.50;;;17.60;64.80;;;;;;4973874;28;20840;-72
2023/03/30 14:58:24;;;;;;;3.40;1.27;;;17.70;64.20;;;;;;4974109;28;20529;-74
2023/03/30 15:00:55;;;;;;;3.33;1.80;;;17.40;63.90;;;;;;4973897;28;20482;-71
2023/03/30 15:03:26;;;;;;;2.20;1.10;;;17.00;65.60;;;;;;4974182;28;20489;-72
2023/03/30 15:05:53;;;;;;;2.60;1.80;;;16.90;66.20;;;;;;4974098;28;20513;-70
2023/03/30 15:08:24;;;;;;;2.83;1.40;;;16.70;66.60;;;;;;4973790;28;20879;-72
2023/03/30 15:10:54;;;;;;;3.07;1.50;;;16.50;66.30;;;;;;4973972;28;20474;-71
2023/03/30 15:13:25;;;;;;;3.27;2.13;;;16.50;67.10;;;;;;4973838;28;20856;-72
2023/03/30 15:15:54;;;;;;;2.60;1.40;;;16.50;67.40;;;;;;4974269;28;20922;-70
2023/03/30 15:18:26;;;;;;;2.40;1.40;;;16.30;67.80;;;;;;4974032;28;20438;-72
2023/03/30 15:20:54;;;;;;;4.70;1.80;;;16.30;68.80;;;;;;4974688;28;20477;-71
2023/03/30 15:23:23;;;;;;;3.53;1.40;;;16.30;69.80;;;;;;4974012;28;20936;-71
2023/03/30 15:25:51;;;;;;;2.97;1.60;;;16.30;69.10;;;;;;4974085;28;20481;-72
2023/03/30 15:28:19;;;;;;;3.17;1.20;;;16.20;69.10;;;;;;4974590;28;20955;-74
2023/03/30 15:30:50;;;;;;;3.53;1.53;;;16.20;67.50;;;;;;4973860;28;20474;-73
2023/03/30 15:33:22;;;;;;;4.03;1.13;;;16.00;67.00;;;;;;4973924;28;20450;-73
2023/03/30 15:35:52;;;;;;;3.23;1.27;;;16.10;67.10;;;;;;4974625;28;20915;-74
2023/03/30 15:38:27;;;;;;;2.57;1.10;;;16.30;65.00;;;;;;4974307;28;20472;-72
2023/03/30 15:40:55;;;;;;;2.10;1.10;;;16.30;64.50;;;;;;4976889;28;20853;-72
2023/03/30 15:43:24;;;;;;;2.20;1.20;;;16.50;64.00;;;;;;4977299;28;20528;-72
2023/03/30 15:45:53;;;;;;;2.20;1.00;;;16.60;64.50;;;;;;4977415;28;20446;-72
2023/03/30 15:48:23;;;;;;;2.20;1.03;;;16.40;63.50;;;;;;4976961;28;20959;-72
2023/03/30 15:50:55;;;;;;;2.30;0.90;;;16.40;63.40;;;;;;4977245;28;20474;-71
2023/03/30 15:53:32;;;;;;;2.40;1.30;;;16.30;63.60;;;;;;4977376;28;20525;-71
2023/03/30 15:56:00;;;;;;;4.83;1.00;;;16.30;63.60;;;;;;4977040;28;20466;-71
2023/03/30 15:58:28;;;;;;;3.13;1.23;;;16.40;64.10;;;;;;4977065;28;20505;-70
2023/03/30 16:00:55;;;;;;;2.13;1.03;;;16.40;63.90;;;;;;4976690;28;20521;-70
2023/03/30 16:03:34;;;;;;;2.37;1.10;;;16.70;64.30;;;;;;4977003;28;20530;-73
2023/03/30 16:06:02;;;;;;;2.00;1.03;;;16.60;63.00;;;;;;4976647;28;20865;-70
2023/03/30 16:08:28;;;;;;;2.70;1.20;;;16.30;63.40;;;;;;4976930;28;20442;-72
2023/03/30 16:10:56;;;;;;;2.30;1.10;;;16.30;63.30;;;;;;4976751;28;20470;-72